createdAt,value
2023-01-19T00:00:17.974Z,-1.50
2023-01-19T00:03:19.635Z,-1.50
2023-01-19T00:06:21.538Z,-1.40
2023-01-19T00:09:23.257Z,-1.40
2023-01-19T00:12:25.901Z,-1.50
2023-01-19T00:15:27.615Z,-1.40
2023-01-19T00:18:29.353Z,-1.50
2023-01-19T00:21:31.072Z,-1.40
2023-01-19T00:24:33.065Z,-1.40
2023-01-19T00:27:34.914Z,-1.50
2023-01-19T00:30:37.513Z,-1.50
2023-01-19T00:33:39.312Z,-1.50
2023-01-19T00:36:41.645Z,-1.40
2023-01-19T00:39:43.621Z,-1.40
2023-01-19T00:42:45.815Z,-1.30
2023-01-19T00:45:47.599Z,-1.40
2023-01-19T00:48:49.261Z,-1.40
2023-01-19T00:51:51.003Z,-1.40
2023-01-19T00:54:52.689Z,-1.40
2023-01-19T00:57:54.895Z,-1.40
2023-01-19T01:01:03.370Z,-1.40
2023-01-19T01:04:05.532Z,-1.40
2023-01-19T01:07:07.420Z,-1.40
2023-01-19T01:10:11.262Z,-1.40
2023-01-19T01:13:22.565Z,-1.40
2023-01-19T01:16:25.480Z,-1.40
2023-01-19T01:19:27.144Z,-1.40
2023-01-19T01:22:28.841Z,-1.40
2023-01-19T01:25:31.146Z,-1.40
2023-01-19T01:28:33.111Z,-1.30
2023-01-19T01:31:34.983Z,-1.30
2023-01-19T01:34:36.593Z,-1.30
2023-01-19T01:37:38.535Z,-1.30
2023-01-19T01:40:41.095Z,-1.20
2023-01-19T01:43:58.132Z,-1.20
2023-01-19T01:47:03.759Z,-1.20
2023-01-19T01:50:15.865Z,-1.20
2023-01-19T01:53:17.551Z,-1.20
2023-01-19T01:56:25.991Z,-1.10
2023-01-19T01:59:39.023Z,-1.10
2023-01-19T02:02:55.011Z,-1.10
2023-01-19T02:06:01.890Z,-1.10
2023-01-19T02:09:26.948Z,-1.10
2023-01-19T02:12:47.421Z,-1.10
2023-01-19T02:15:54.582Z,-1.10
2023-01-19T02:18:57.904Z,-1.10
2023-01-19T02:22:14.764Z,-1.10
2023-01-19T02:25:18.165Z,-1.20
2023-01-19T02:28:20.066Z,-1.10
2023-01-19T02:31:21.917Z,-1.20
2023-01-19T02:34:23.721Z,-1.20
2023-01-19T02:37:28.026Z,-1.20
2023-01-19T02:40:30.399Z,-1.20
2023-01-19T02:43:33.342Z,-1.20
2023-01-19T02:46:35.156Z,-1.10
2023-01-19T02:49:37.491Z,-1.10
2023-01-19T02:52:39.140Z,-1.10
2023-01-19T02:55:44.945Z,-1.10
2023-01-19T02:59:04.452Z,-1.10
2023-01-19T03:02:34.090Z,-1.10
2023-01-19T03:06:22.362Z,-1.10
2023-01-19T03:09:44.871Z,-1.00
2023-01-19T03:13:04.004Z,-1.00
2023-01-19T03:16:15.323Z,-0.90
2023-01-19T03:19:22.030Z,-0.80
2023-01-19T03:22:29.580Z,-0.80
2023-01-19T03:25:35.236Z,-0.80
2023-01-19T03:28:40.383Z,-0.80
2023-01-19T03:31:46.059Z,-0.80
2023-01-19T03:34:50.249Z,-0.70
2023-01-19T03:37:55.798Z,-0.70
2023-01-19T03:41:02.361Z,-0.70
2023-01-19T03:44:07.293Z,-0.70
2023-01-19T03:47:11.346Z,-0.70
2023-01-19T03:50:27.495Z,-0.80
2023-01-19T03:53:29.044Z,-0.70
2023-01-19T03:56:31.041Z,-0.80
2023-01-19T03:59:32.882Z,-0.80
2023-01-19T04:02:34.626Z,-0.80
2023-01-19T04:05:37.611Z,-0.90
2023-01-19T04:08:40.670Z,-0.90
2023-01-19T04:11:42.720Z,-1.00
2023-01-19T04:14:44.361Z,-1.00
2023-01-19T04:17:46.116Z,-1.00
2023-01-19T04:20:47.834Z,-1.00
2023-01-19T04:23:49.939Z,-1.00
2023-01-19T04:26:53.427Z,-1.00
2023-01-19T04:29:55.095Z,-1.00
2023-01-19T04:32:59.667Z,-0.90
2023-01-19T04:36:01.904Z,-0.80
2023-01-19T04:39:04.983Z,-0.80
2023-01-19T04:42:06.719Z,-0.70
2023-01-19T04:45:09.130Z,-0.70
2023-01-19T04:48:11.788Z,-0.60
2023-01-19T04:51:13.451Z,-0.50
2023-01-19T04:54:15.184Z,-0.50
2023-01-19T04:57:19.712Z,-0.50
2023-01-19T05:00:21.595Z,-0.50
2023-01-19T05:03:25.622Z,-0.40
2023-01-19T05:06:28.188Z,-0.30
2023-01-19T05:09:29.901Z,-0.30
2023-01-19T05:12:31.602Z,-0.20
2023-01-19T05:15:33.278Z,-0.10
2023-01-19T05:18:36.888Z,-0.10
2023-01-19T05:21:38.718Z,-0.10
2023-01-19T05:24:40.481Z,-0.10
2023-01-19T05:27:42.191Z,-0.10
2023-01-19T05:30:46.885Z,-0.10
2023-01-19T05:33:49.100Z,-0.10
2023-01-19T05:36:51.407Z,0.00
2023-01-19T05:39:56.262Z,0.00
2023-01-19T05:43:01.516Z,0.00
2023-01-19T05:46:05.304Z,0.10
2023-01-19T05:49:07.426Z,0.10
2023-01-19T05:52:09.094Z,0.10
2023-01-19T05:55:10.701Z,0.10
2023-01-19T05:58:12.361Z,0.10
2023-01-19T06:01:16.082Z,0.10
2023-01-19T06:04:18.053Z,0.10
2023-01-19T06:07:19.735Z,0.00
2023-01-19T06:10:21.445Z,0.10
2023-01-19T06:13:23.082Z,0.10
2023-01-19T06:16:24.715Z,0.10
2023-01-19T06:19:26.416Z,0.00
2023-01-19T06:22:28.142Z,0.00
2023-01-19T06:25:30.208Z,0.00
2023-01-19T06:28:32.029Z,-0.10
2023-01-19T06:31:33.640Z,0.00
2023-01-19T06:34:35.219Z,0.00
2023-01-19T06:37:36.902Z,0.00
2023-01-19T06:40:38.492Z,0.00
2023-01-19T06:43:40.040Z,0.00
2023-01-19T06:46:41.776Z,0.10
2023-01-19T06:49:43.607Z,0.10
2023-01-19T06:52:45.424Z,0.10
2023-01-19T06:55:47.297Z,0.10
2023-01-19T06:58:50.364Z,0.10
2023-01-19T07:01:52.099Z,0.10
2023-01-19T07:04:53.741Z,0.10
2023-01-19T07:07:56.466Z,0.10
2023-01-19T07:11:25.800Z,0.10
2023-01-19T07:14:34.281Z,0.10
2023-01-19T07:17:38.817Z,0.00
2023-01-19T07:20:40.490Z,0.10
2023-01-19T07:23:43.252Z,0.10
2023-01-19T07:26:44.868Z,0.10
2023-01-19T07:29:46.453Z,0.10
2023-01-19T07:32:48.349Z,0.10
2023-01-19T07:35:50.874Z,0.10
2023-01-19T07:38:52.499Z,0.00
2023-01-19T07:41:54.237Z,0.00
2023-01-19T07:44:55.841Z,0.00
2023-01-19T07:47:57.448Z,0.00
2023-01-19T07:51:11.050Z,0.00
2023-01-19T07:54:14.023Z,-0.10
2023-01-19T07:57:15.601Z,-0.10
2023-01-19T08:00:21.725Z,0.00
2023-01-19T08:03:23.707Z,0.00
2023-01-19T08:06:33.201Z,0.00
2023-01-19T08:09:34.906Z,0.00
2023-01-19T08:12:36.449Z,0.10
2023-01-19T08:15:38.478Z,0.20
2023-01-19T08:18:40.262Z,0.30
2023-01-19T08:21:41.881Z,0.30
2023-01-19T08:24:43.658Z,0.30
2023-01-19T08:27:45.254Z,0.40
2023-01-19T08:30:53.854Z,0.30
2023-01-19T08:33:55.713Z,0.30
2023-01-19T08:36:58.306Z,0.30
2023-01-19T08:39:59.961Z,0.40
2023-01-19T08:43:05.710Z,0.40
2023-01-19T08:46:07.407Z,0.50
2023-01-19T08:49:09.225Z,0.50
2023-01-19T08:52:10.805Z,0.50
2023-01-19T08:55:12.403Z,0.50
2023-01-19T08:58:14.013Z,0.50
2023-01-19T09:01:16.887Z,0.50
2023-01-19T09:04:18.717Z,0.50
2023-01-19T09:07:20.399Z,0.60
2023-01-19T09:10:22.105Z,0.70
2023-01-19T09:13:23.798Z,0.80
2023-01-19T09:16:27.064Z,0.90
2023-01-19T09:19:28.899Z,1.00
2023-01-19T09:22:30.576Z,1.10
2023-01-19T09:25:32.730Z,1.20
2023-01-19T09:28:34.516Z,1.40
2023-01-19T09:31:36.827Z,1.40
2023-01-19T09:34:41.505Z,1.50
2023-01-19T09:37:47.091Z,1.50
2023-01-19T09:40:53.172Z,1.60
2023-01-19T09:43:57.706Z,1.80
2023-01-19T09:47:01.757Z,1.90
2023-01-19T09:50:06.619Z,1.90
2023-01-19T09:53:21.228Z,1.90
2023-01-19T09:56:24.017Z,2.00
2023-01-19T09:59:31.351Z,2.10
2023-01-19T10:02:38.922Z,2.20
2023-01-19T10:06:05.987Z,2.30
2023-01-19T10:09:28.677Z,2.40
2023-01-19T10:12:51.692Z,2.50
2023-01-19T10:15:59.968Z,2.60
2023-01-19T10:19:25.932Z,2.60
2023-01-19T10:22:28.961Z,2.70
2023-01-19T10:25:30.968Z,2.60
2023-01-19T10:28:33.272Z,2.70
2023-01-19T10:31:39.422Z,2.70
2023-01-19T10:34:41.604Z,2.80
2023-01-19T10:37:44.617Z,2.80
2023-01-19T10:40:56.170Z,2.80
2023-01-19T10:44:03.412Z,2.80
2023-01-19T10:47:16.677Z,2.80
2023-01-19T10:50:28.262Z,2.80
2023-01-19T10:53:29.992Z,2.70
2023-01-19T10:56:35.298Z,2.80
2023-01-19T10:59:44.215Z,2.80
2023-01-19T11:02:51.975Z,2.80
2023-01-19T11:05:53.732Z,2.80
2023-01-19T11:09:20.227Z,2.70
2023-01-19T11:12:23.711Z,2.70
2023-01-19T11:15:33.336Z,2.60
2023-01-19T11:18:37.523Z,2.60
2023-01-19T11:21:39.276Z,2.50
2023-01-19T11:24:41.494Z,2.50
2023-01-19T11:27:51.451Z,2.50
2023-01-19T11:30:57.818Z,2.50
2023-01-19T11:34:00.944Z,2.50
2023-01-19T11:37:17.114Z,2.50
2023-01-19T11:40:18.868Z,2.60
2023-01-19T11:43:22.915Z,2.60
2023-01-19T11:46:31.332Z,2.60
2023-01-19T11:50:04.443Z,2.70
2023-01-19T11:53:21.691Z,2.70
2023-01-19T11:56:26.464Z,2.60
2023-01-19T11:59:28.363Z,2.60
2023-01-19T12:02:46.241Z,2.70
2023-01-19T12:05:51.544Z,2.70
2023-01-19T12:08:57.779Z,2.70
2023-01-19T12:12:11.804Z,2.60
2023-01-19T12:15:34.885Z,2.50
2023-01-19T12:18:42.036Z,2.40
2023-01-19T12:21:48.053Z,2.40
2023-01-19T12:25:14.793Z,2.30
2023-01-19T12:28:17.923Z,2.30
2023-01-19T12:31:22.591Z,2.30
2023-01-19T12:34:31.415Z,2.30
2023-01-19T12:37:43.848Z,2.30
2023-01-19T12:40:45.871Z,2.30
2023-01-19T12:43:49.418Z,2.40
2023-01-19T12:47:20.985Z,2.40
2023-01-19T12:50:25.722Z,2.50
2023-01-19T12:53:27.555Z,2.60
2023-01-19T12:56:36.326Z,2.50
2023-01-19T12:59:39.312Z,2.60
2023-01-19T13:02:46.491Z,2.60
2023-01-19T13:05:54.117Z,2.60
2023-01-19T13:08:58.287Z,2.70
2023-01-19T13:12:14.976Z,2.80
2023-01-19T13:15:35.154Z,3.00
2023-01-19T13:18:41.355Z,3.00
2023-01-19T13:21:48.103Z,3.00
2023-01-19T13:25:12.762Z,3.00
2023-01-19T13:28:16.658Z,3.00
2023-01-19T13:31:19.403Z,2.90
2023-01-19T13:34:27.660Z,2.90
2023-01-19T13:37:46.979Z,2.90
2023-01-19T13:40:49.404Z,2.80
2023-01-19T13:44:08.339Z,2.80
2023-01-19T13:47:18.833Z,2.80
2023-01-19T13:50:23.325Z,2.80
2023-01-19T13:53:25.197Z,2.70
2023-01-19T13:56:28.909Z,2.70
2023-01-19T13:59:30.628Z,2.60
2023-01-19T14:02:32.592Z,2.60
2023-01-19T14:05:36.378Z,2.60
2023-01-19T14:08:38.054Z,2.60
2023-01-19T14:11:47.697Z,2.60
2023-01-19T14:14:49.465Z,2.60
2023-01-19T14:18:14.585Z,2.50
2023-01-19T14:21:16.470Z,2.50
2023-01-19T14:24:19.512Z,2.50
2023-01-19T14:27:24.492Z,2.40
2023-01-19T14:30:26.896Z,2.40
2023-01-19T14:33:43.606Z,2.40
2023-01-19T14:36:45.253Z,2.30
2023-01-19T14:39:51.203Z,2.30
2023-01-19T14:42:57.365Z,2.20
2023-01-19T14:45:59.417Z,2.20
2023-01-19T14:49:13.468Z,2.10
2023-01-19T14:52:27.448Z,2.10
2023-01-19T14:55:45.239Z,2.20
2023-01-19T14:58:52.918Z,2.20
2023-01-19T15:01:58.237Z,2.20
2023-01-19T15:05:29.851Z,2.10
2023-01-19T15:08:50.035Z,2.10
2023-01-19T15:11:54.531Z,2.10
2023-01-19T15:16:01.010Z,2.10
2023-01-19T15:19:25.480Z,2.10
2023-01-19T15:22:38.316Z,2.10
2023-01-19T15:25:45.178Z,2.00
2023-01-19T15:28:50.802Z,2.00
2023-01-19T15:31:55.689Z,1.90
2023-01-19T15:35:11.435Z,1.90
2023-01-19T15:38:33.615Z,1.80
2023-01-19T15:41:39.723Z,1.90
2023-01-19T15:45:01.950Z,1.80
2023-01-19T15:48:14.698Z,1.80
2023-01-19T15:51:21.332Z,1.70
2023-01-19T15:54:23.512Z,1.70
2023-01-19T15:57:25.391Z,1.70
2023-01-19T16:00:32.336Z,1.70
2023-01-19T16:03:34.078Z,1.70
2023-01-19T16:06:38.725Z,1.60
2023-01-19T16:09:44.019Z,1.60
2023-01-19T16:12:47.642Z,1.50
2023-01-19T16:15:49.653Z,1.40
2023-01-19T16:18:51.932Z,1.40
2023-01-19T16:21:53.987Z,1.30
2023-01-19T16:24:56.356Z,1.40
2023-01-19T16:27:58.325Z,1.40
2023-01-19T16:31:00.099Z,1.40
2023-01-19T16:34:03.048Z,1.40
2023-01-19T16:37:04.924Z,1.40
2023-01-19T16:40:09.598Z,1.40
2023-01-19T16:43:17.412Z,1.40
2023-01-19T16:46:24.782Z,1.40
2023-01-19T16:49:28.536Z,1.40
2023-01-19T16:52:30.550Z,1.40
2023-01-19T16:55:32.907Z,1.40
2023-01-19T16:58:37.386Z,1.40
2023-01-19T17:01:39.795Z,1.50
2023-01-19T17:04:41.436Z,1.40
2023-01-19T17:07:58.400Z,1.40
2023-01-19T17:11:02.794Z,1.40
2023-01-19T17:14:07.642Z,1.40
2023-01-19T17:17:11.912Z,1.40
2023-01-19T17:20:16.301Z,1.40
2023-01-19T17:23:17.952Z,1.30
2023-01-19T17:26:20.734Z,1.40
2023-01-19T17:29:22.424Z,1.40
2023-01-19T17:32:24.061Z,1.30
2023-01-19T17:35:25.682Z,1.30
2023-01-19T17:38:28.553Z,1.30
2023-01-19T17:41:32.465Z,1.30
2023-01-19T17:44:34.194Z,1.30
2023-01-19T17:47:35.764Z,1.40
2023-01-19T17:50:37.619Z,1.40
2023-01-19T17:53:41.168Z,1.40
2023-01-19T17:56:42.801Z,1.40
2023-01-19T17:59:44.504Z,1.30
2023-01-19T18:02:50.523Z,1.40
2023-01-19T18:05:55.924Z,1.30
2023-01-19T18:08:59.716Z,1.30
2023-01-19T18:12:01.517Z,1.30
2023-01-19T18:15:04.996Z,1.30
2023-01-19T18:18:06.685Z,1.30
2023-01-19T18:21:10.785Z,1.40
2023-01-19T18:24:12.401Z,1.30
2023-01-19T18:27:16.232Z,1.30
2023-01-19T18:30:18.300Z,1.30
2023-01-19T18:33:20.494Z,1.30
2023-01-19T18:36:22.141Z,1.20
2023-01-19T18:39:23.727Z,1.30
2023-01-19T18:42:25.349Z,1.20
2023-01-19T18:45:26.973Z,1.20
2023-01-19T18:48:28.846Z,1.20
2023-01-19T18:51:30.547Z,1.20
2023-01-19T18:54:32.300Z,1.10
2023-01-19T18:57:35.501Z,1.10
2023-01-19T19:00:37.219Z,1.10
2023-01-19T19:03:38.849Z,1.10
2023-01-19T19:06:40.444Z,1.20
2023-01-19T19:09:42.035Z,1.20
2023-01-19T19:12:43.725Z,1.20
2023-01-19T19:15:45.330Z,1.20
2023-01-19T19:18:49.941Z,1.20
2023-01-19T19:21:53.478Z,1.20
2023-01-19T19:24:55.074Z,1.20
2023-01-19T19:27:56.614Z,1.20
2023-01-19T19:31:11.396Z,1.20
2023-01-19T19:34:13.162Z,1.20
2023-01-19T19:37:15.235Z,1.20
2023-01-19T19:40:17.264Z,1.20
2023-01-19T19:43:19.219Z,1.20
2023-01-19T19:46:24.025Z,1.20
2023-01-19T19:49:27.089Z,1.20
2023-01-19T19:52:28.644Z,1.30
2023-01-19T19:55:30.289Z,1.30
2023-01-19T19:58:32.076Z,1.20
2023-01-19T20:01:34.308Z,1.20
2023-01-19T20:04:36.183Z,1.20
2023-01-19T20:07:38.991Z,1.20
2023-01-19T20:10:40.556Z,1.20
2023-01-19T20:13:43.724Z,1.20
2023-01-19T20:16:45.430Z,1.20
2023-01-19T20:19:48.803Z,1.20
2023-01-19T20:22:50.445Z,1.20
2023-01-19T20:25:52.508Z,1.20
2023-01-19T20:28:56.659Z,1.20
2023-01-19T20:31:58.294Z,1.20
2023-01-19T20:35:00.166Z,1.20
2023-01-19T20:38:01.723Z,1.20
2023-01-19T20:41:03.497Z,1.20
2023-01-19T20:44:05.086Z,1.20
2023-01-19T20:47:06.815Z,1.20
2023-01-19T20:50:09.111Z,1.20
2023-01-19T20:53:10.702Z,1.20
2023-01-19T20:56:14.158Z,1.10
2023-01-19T20:59:16.111Z,1.10
2023-01-19T21:02:17.891Z,1.10
2023-01-19T21:05:19.836Z,1.10
2023-01-19T21:08:21.599Z,1.10
2023-01-19T21:11:24.059Z,1.10
2023-01-19T21:14:25.754Z,1.10
2023-01-19T21:17:27.331Z,1.10
2023-01-19T21:20:33.102Z,1.10
2023-01-19T21:23:34.714Z,1.10
2023-01-19T21:26:37.731Z,1.10
2023-01-19T21:29:40.699Z,1.20
2023-01-19T21:32:42.547Z,1.20
2023-01-19T21:35:55.575Z,1.20
2023-01-19T21:39:00.543Z,1.20
2023-01-19T21:42:02.605Z,1.10
2023-01-19T21:45:04.593Z,1.10
2023-01-19T21:48:06.526Z,1.10
2023-01-19T21:51:08.861Z,1.10
2023-01-19T21:54:10.827Z,1.10
2023-01-19T21:57:15.104Z,1.10
2023-01-19T22:00:17.402Z,1.10
2023-01-19T22:03:19.043Z,1.10
2023-01-19T22:06:21.197Z,1.10
2023-01-19T22:09:22.785Z,1.00
2023-01-19T22:12:24.412Z,0.90
2023-01-19T22:15:26.089Z,0.90
2023-01-19T22:18:28.007Z,0.90
2023-01-19T22:21:32.502Z,0.80
2023-01-19T22:24:34.109Z,0.80
2023-01-19T22:27:37.316Z,0.70
2023-01-19T22:30:39.133Z,0.80
2023-01-19T22:33:41.749Z,0.70
2023-01-19T22:36:43.547Z,0.80
2023-01-19T22:39:45.129Z,0.60
2023-01-19T22:42:47.992Z,0.60
2023-01-19T22:45:49.657Z,0.50
2023-01-19T22:48:52.088Z,0.50
2023-01-19T22:51:54.323Z,0.40
2023-01-19T22:54:58.085Z,0.30
2023-01-19T22:57:59.633Z,0.30
2023-01-19T23:01:09.357Z,0.30
2023-01-19T23:04:14.401Z,0.20
2023-01-19T23:07:16.038Z,0.20
2023-01-19T23:10:17.696Z,0.10
2023-01-19T23:13:19.314Z,0.10
2023-01-19T23:16:21.411Z,0.10
2023-01-19T23:19:22.999Z,0.00
2023-01-19T23:22:24.611Z,0.00
2023-01-19T23:25:26.253Z,0.00
2023-01-19T23:28:27.854Z,-0.10
2023-01-19T23:31:32.340Z,-0.20
2023-01-19T23:34:34.089Z,-0.10
2023-01-19T23:37:35.695Z,-0.20
2023-01-19T23:40:38.449Z,-0.20
2023-01-19T23:43:40.085Z,-0.20
2023-01-19T23:46:41.821Z,-0.20
2023-01-19T23:49:43.420Z,-0.30
2023-01-19T23:52:45.051Z,-0.30
2023-01-19T23:55:46.666Z,-0.30
2023-01-19T23:58:53.212Z,-0.40
